Time;durP1;ratioP1;P1;durP2;ratioP2;P2;SDS_P1;SDS_P2;PMS_P1;PMS_P2;Temp;Humidity;BMP_temperature;BMP_pressure;BME280_temperature;BME280_humidity;BME280_pressure;Samples;Min_cycle;Max_cycle;Signal;HPM_P1;HPM_P2
2021/08/13 00:01:49;;;;;;;12.55;2.88;;;;;;;;;;5021102;28;20038;-79
2021/08/13 00:04:16;;;;;;;17.30;4.68;;;;;;;;;;5021808;28;20049;-78
2021/08/13 00:06:44;;;;;;;9.88;2.75;;;;;;;;;;5017547;28;20115;-78
2021/08/13 00:09:12;;;;;;;11.57;3.20;;;;;;;;;;5021746;28;20064;-78
2021/08/13 00:11:40;;;;;;;9.63;3.47;;;;;;;;;;5021345;28;20049;-79
2021/08/13 00:14:09;;;;;;;17.33;4.82;;;;;;;;;;5002221;28;20038;-78
2021/08/13 00:16:37;;;;;;;11.45;4.38;;;;;;;;;;5036301;28;20045;-79
2021/08/13 00:19:06;;;;;;;15.15;5.38;;;;;;;;;;5020110;28;20045;-79
2021/08/13 00:21:33;;;;;;;13.07;4.15;;;;;;;;;;5021875;28;20128;-78
2021/08/13 00:24:00;;;;;;;10.05;4.57;;;;;;;;;;5002552;28;20107;-77
2021/08/13 00:26:29;;;;;;;12.70;4.22;;;;;;;;;;5019442;28;20049;-78
2021/08/13 00:28:57;;;;;;;15.45;4.90;;;;;;;;;;5020099;28;20041;-78
2021/08/13 00:31:24;;;;;;;9.13;3.92;;;;;;;;;;5021961;28;20056;-78
2021/08/13 00:33:51;;;;;;;15.23;4.32;;;;;;;;;;5025635;28;20388;-78
2021/08/13 00:36:19;;;;;;;13.60;3.92;;;;;;;;;;5021849;28;20041;-78
2021/08/13 00:38:46;;;;;;;11.27;3.53;;;;;;;;;;5020222;28;20041;-78
2021/08/13 00:41:13;;;;;;;11.45;3.15;;;;;;;;;;5022156;28;20045;-78
2021/08/13 00:43:40;;;;;;;9.93;3.42;;;;;;;;;;5022438;28;20117;-78
2021/08/13 00:46:07;;;;;;;10.02;2.80;;;;;;;;;;5011827;28;20128;-78
2021/08/13 00:48:34;;;;;;;10.02;3.08;;;;;;;;;;5022006;28;20121;-78
2021/08/13 00:51:01;;;;;;;14.40;3.75;;;;;;;;;;5019058;28;20120;-78
2021/08/13 00:53:28;;;;;;;13.00;4.47;;;;;;;;;;5019862;28;20056;-78
2021/08/13 00:55:56;;;;;;;17.05;4.80;;;;;;;;;;5019736;28;20041;-78
2021/08/13 00:58:24;;;;;;;15.85;4.60;;;;;;;;;;5021580;28;20044;-78
2021/08/13 01:00:51;;;;;;;10.57;5.40;;;;;;;;;;5021446;28;20136;-78
2021/08/13 01:03:19;;;;;;;14.63;4.75;;;;;;;;;;5021308;28;20452;-78
2021/08/13 01:05:46;;;;;;;15.55;4.75;;;;;;;;;;5018250;28;20049;-78
2021/08/13 01:08:13;;;;;;;14.15;4.85;;;;;;;;;;5019031;28;20048;-77
2021/08/13 01:10:48;;;;;;;11.07;4.53;;;;;;;;;;5021533;28;20559;-78
2021/08/13 01:13:31;;;;;;;14.13;5.15;;;;;;;;;;5017126;28;20056;-77
2021/08/13 01:16:01;;;;;;;13.85;6.70;;;;;;;;;;4987016;28;20048;-77
2021/08/13 01:18:40;;;;;;;14.80;5.80;;;;;;;;;;5018453;28;20132;-77
2021/08/13 01:21:48;;;;;;;13.55;6.90;;;;;;;;;;5001573;28;20064;-77
2021/08/13 01:24:21;;;;;;;16.10;6.65;;;;;;;;;;4970036;28;20054;-78
2021/08/13 01:27:00;;;;;;;17.10;8.23;;;;;;;;;;5019501;28;20041;-77
2021/08/13 01:29:48;;;;;;;13.52;8.63;;;;;;;;;;4995152;28;20121;-78
2021/08/13 01:32:39;;;;;;;17.90;6.93;;;;;;;;;;5033405;28;20084;-78
2021/08/13 01:35:20;;;;;;;29.73;11.40;;;;;;;;;;5007261;28;20454;-78
2021/08/13 01:37:53;;;;;;;19.45;10.50;;;;;;;;;;5029468;28;20037;-77
2021/08/13 01:40:23;;;;;;;20.02;12.30;;;;;;;;;;5005476;28;20131;-77
2021/08/13 01:42:52;;;;;;;18.20;10.38;;;;;;;;;;5009695;28;20052;-76
2021/08/13 01:45:24;;;;;;;22.02;10.00;;;;;;;;;;5018659;28;20415;-77
2021/08/13 01:47:54;;;;;;;22.67;11.13;;;;;;;;;;5012763;28;20034;-77
2021/08/13 01:50:22;;;;;;;18.95;10.77;;;;;;;;;;5010849;28;20053;-77
2021/08/13 01:52:54;;;;;;;19.85;10.80;;;;;;;;;;5008862;28;20056;-77
2021/08/13 01:55:24;;;;;;;20.23;10.35;;;;;;;;;;5015669;28;20045;-77
2021/08/13 01:57:53;;;;;;;19.95;9.93;;;;;;;;;;5037921;28;20053;-78
2021/08/13 02:00:21;;;;;;;17.85;9.27;;;;;;;;;;5005314;28;20042;-78
2021/08/13 02:02:49;;;;;;;15.52;5.88;;;;;;;;;;5021346;28;20046;-79
2021/08/13 02:05:20;;;;;;;15.52;6.78;;;;;;;;;;5021170;28;20041;-77
2021/08/13 02:07:51;;;;;;;18.40;9.68;;;;;;;;;;5023004;28;20046;-77
2021/08/13 02:10:19;;;;;;;19.77;10.13;;;;;;;;;;5023006;28;20048;-77
2021/08/13 02:12:47;;;;;;;;;;;;;;;;;;5024214;28;20053;-76
2021/08/13 02:15:14;;;;;;;12.52;4.28;;;;;;;;;;5021175;28;20039;-76
2021/08/13 02:18:04;;;;;;;9.90;3.33;;;;;;;;;;5020742;28;20065;-77
2021/08/13 02:20:32;;;;;;;11.13;3.10;;;;;;;;;;5021470;28;20680;-76
2021/08/13 02:22:59;;;;;;;9.07;2.63;;;;;;;;;;5020567;28;20068;-79
2021/08/13 02:25:27;;;;;;;10.13;3.15;;;;;;;;;;5023489;28;20112;-77
2021/08/13 02:27:54;;;;;;;24.13;9.32;;;;;;;;;;5023272;28;20065;-77
2021/08/13 02:30:21;;;;;;;26.25;14.77;;;;;;;;;;5022873;28;20057;-78
2021/08/13 02:32:48;;;;;;;38.17;19.55;;;;;;;;;;5023363;28;20049;-77
2021/08/13 02:35:15;;;;;;;29.52;16.20;;;;;;;;;;5023048;28;20049;-76
2021/08/13 02:37:50;;;;;;;36.03;15.23;;;;;;;;;;5022611;28;22347;-78
2021/08/13 02:40:29;;;;;;;39.95;13.00;;;;;;;;;;5001751;28;20624;-76
2021/08/13 02:43:27;;;;;;;29.15;9.15;;;;;;;;;;5037327;28;20048;-76
2021/08/13 02:45:59;;;;;;;20.35;8.65;;;;;;;;;;5023116;28;20048;-77
2021/08/13 02:48:27;;;;;;;20.05;9.77;;;;;;;;;;5037010;28;20042;-76
2021/08/13 02:50:56;;;;;;;36.17;11.23;;;;;;;;;;5037320;28;20403;-76
2021/08/13 02:53:25;;;;;;;36.17;10.52;;;;;;;;;;5021525;28;20419;-75
2021/08/13 02:56:04;;;;;;;21.13;8.85;;;;;;;;;;5020593;28;20042;-77
2021/08/13 02:58:42;;;;;;;27.52;7.90;;;;;;;;;;5022675;28;20045;-75
2021/08/13 03:01:17;;;;;;;31.35;9.95;;;;;;;;;;5022105;28;20103;-77
2021/08/13 03:03:44;;;;;;;25.58;10.63;;;;;;;;;;5022134;28;20037;-75
2021/08/13 03:06:15;;;;;;;37.42;10.70;;;;;;;;;;5022306;28;20094;-76
2021/08/13 03:08:44;;;;;;;21.08;6.45;;;;;;;;;;5022297;28;20071;-77
2021/08/13 03:11:12;;;;;;;14.48;5.30;;;;;;;;;;5037715;28;20037;-77
2021/08/13 03:13:40;;;;;;;;;;;;;;;;;;5023135;28;20046;-76
2021/08/13 03:16:07;;;;;;;;;;;;;;;;;;5022856;28;19974;-76
2021/08/13 03:18:35;;;;;;;13.98;3.47;;;;;;;;;;5020414;28;19944;-75
2021/08/13 03:21:03;;;;;;;12.25;3.38;;;;;;;;;;5022300;28;20049;-75
2021/08/13 03:23:30;;;;;;;12.80;3.10;;;;;;;;;;5022066;28;20049;-76
2021/08/13 03:25:58;;;;;;;13.23;2.97;;;;;;;;;;5037948;28;20042;-78
2021/08/13 03:28:25;;;;;;;10.60;3.42;;;;;;;;;;5020801;28;20037;-75
2021/08/13 03:30:52;;;;;;;8.27;2.60;;;;;;;;;;5023739;28;20468;-76
2021/08/13 03:33:19;;;;;;;11.65;2.40;;;;;;;;;;5024897;28;20373;-76
2021/08/13 03:35:49;;;;;;;9.50;2.70;;;;;;;;;;5025875;28;20042;-74
2021/08/13 03:38:16;;;;;;;10.70;2.30;;;;;;;;;;5007830;28;20495;-76
2021/08/13 03:40:43;;;;;;;16.33;2.33;;;;;;;;;;5024178;28;20057;-75
2021/08/13 03:43:10;;;;;;;10.80;2.47;;;;;;;;;;5025705;28;20037;-75
2021/08/13 03:45:37;;;;;;;10.07;2.17;;;;;;;;;;5024894;28;20071;-77
2021/08/13 03:48:04;;;;;;;6.70;2.20;;;;;;;;;;5026269;28;20033;-74
2021/08/13 03:50:32;;;;;;;12.82;2.10;;;;;;;;;;5025472;28;20038;-76
2021/08/13 03:52:59;;;;;;;9.48;1.90;;;;;;;;;;5025727;28;20059;-75
2021/08/13 03:55:26;;;;;;;11.07;2.20;;;;;;;;;;5025257;28;20044;-75
2021/08/13 03:57:53;;;;;;;10.52;2.20;;;;;;;;;;5025443;28;20132;-76
2021/08/13 04:00:20;;;;;;;10.10;2.97;;;;;;;;;;5026109;28;20128;-75
2021/08/13 04:02:47;;;;;;;15.32;3.30;;;;;;;;;;5025279;28;20044;-75
2021/08/13 04:05:14;;;;;;;11.95;3.15;;;;;;;;;;5025436;28;20095;-75
2021/08/13 04:07:41;;;;;;;12.50;4.13;;;;;;;;;;5025276;28;20554;-75
2021/08/13 04:10:08;;;;;;;14.57;3.00;;;;;;;;;;5025772;28;20407;-76
2021/08/13 04:12:35;;;;;;;10.10;3.28;;;;;;;;;;5025322;28;20040;-75
2021/08/13 04:15:03;;;;;;;17.23;3.88;;;;;;;;;;5025023;28;20389;-76
2021/08/13 04:17:30;;;;;;;12.55;3.20;;;;;;;;;;5025856;28;20044;-76
2021/08/13 04:19:57;;;;;;;13.57;3.40;;;;;;;;;;5024849;28;20103;-77
2021/08/13 04:22:25;;;;;;;15.80;3.70;;;;;;;;;;5025061;28;20033;-76
2021/08/13 04:24:53;;;;;;;15.13;4.35;;;;;;;;;;5025024;28;20396;-75
2021/08/13 04:27:20;;;;;;;10.38;3.70;;;;;;;;;;5040098;28;20557;-76
2021/08/13 04:29:47;;;;;;;8.35;3.28;;;;;;;;;;5024681;28;20116;-75
2021/08/13 04:32:14;;;;;;;16.02;3.95;;;;;;;;;;5025467;28;20041;-75
2021/08/13 04:34:41;;;;;;;15.50;3.97;;;;;;;;;;5024666;28;20049;-75
2021/08/13 04:37:08;;;;;;;9.50;3.75;;;;;;;;;;5023306;28;20048;-75
2021/08/13 04:39:35;;;;;;;13.90;3.90;;;;;;;;;;5023232;28;20045;-74
2021/08/13 04:42:03;;;;;;;19.27;4.10;;;;;;;;;;5022463;28;20041;-76
2021/08/13 04:44:30;;;;;;;8.80;2.78;;;;;;;;;;5039463;28;20100;-76
2021/08/13 04:46:57;;;;;;;13.65;2.80;;;;;;;;;;5024529;28;20033;-75
2021/08/13 04:49:24;;;;;;;10.27;3.53;;;;;;;;;;5025138;28;20052;-74
2021/08/13 04:51:51;;;;;;;12.25;3.00;;;;;;;;;;5022763;28;20607;-75
2021/08/13 04:54:18;;;;;;;13.77;2.40;;;;;;;;;;5024207;28;20060;-76
2021/08/13 04:56:46;;;;;;;13.52;2.90;;;;;;;;;;5023273;28;20492;-76
2021/08/13 04:59:13;;;;;;;13.60;2.67;;;;;;;;;;5024654;28;20048;-76
2021/08/13 05:01:40;;;;;;;8.93;2.80;;;;;;;;;;5024965;28;20076;-76
2021/08/13 05:04:07;;;;;;;15.27;2.15;;;;;;;;;;5039582;28;20049;-75
2021/08/13 05:06:35;;;;;;;10.65;2.00;;;;;;;;;;5022494;28;20037;-75
2021/08/13 05:09:02;;;;;;;7.03;2.50;;;;;;;;;;5022984;28;20049;-75
2021/08/13 05:11:29;;;;;;;11.82;2.25;;;;;;;;;;5024205;28;20045;-75
2021/08/13 05:13:56;;;;;;;9.73;2.33;;;;;;;;;;5022574;28;20045;-76
2021/08/13 05:16:23;;;;;;;14.15;3.00;;;;;;;;;;5022912;28;20045;-75
2021/08/13 05:18:50;;;;;;;13.20;2.00;;;;;;;;;;5022179;28;20125;-76
2021/08/13 05:21:17;;;;;;;8.35;2.05;;;;;;;;;;5023684;28;20506;-76
2021/08/13 05:23:44;;;;;;;10.35;2.42;;;;;;;;;;5024127;28;20053;-75
2021/08/13 05:26:11;;;;;;;9.32;2.70;;;;;;;;;;5024129;28;20858;-75
2021/08/13 05:28:38;;;;;;;12.23;2.35;;;;;;;;;;5023515;28;20056;-75
2021/08/13 05:31:05;;;;;;;7.25;2.40;;;;;;;;;;5023589;28;20044;-75
2021/08/13 05:33:32;;;;;;;8.85;2.38;;;;;;;;;;5022746;28;20041;-75
2021/08/13 05:35:59;;;;;;;8.90;2.30;;;;;;;;;;5038466;28;20038;-75
2021/08/13 05:38:26;;;;;;;10.82;2.45;;;;;;;;;;5023673;28;20049;-76
2021/08/13 05:40:53;;;;;;;11.80;2.53;;;;;;;;;;5024228;28;20067;-75
2021/08/13 05:43:20;;;;;;;10.60;2.60;;;;;;;;;;5023549;28;20496;-75
2021/08/13 05:45:47;;;;;;;10.82;2.40;;;;;;;;;;5022488;28;20045;-76
2021/08/13 05:48:14;;;;;;;13.57;2.90;;;;;;;;;;5021513;28;20052;-75
2021/08/13 05:50:42;;;;;;;7.25;3.10;;;;;;;;;;5023076;28;20488;-76
2021/08/13 05:53:09;;;;;;;11.45;3.08;;;;;;;;;;5021356;28;20111;-76
2021/08/13 05:55:36;;;;;;;11.18;2.90;;;;;;;;;;5023318;28;20120;-75
2021/08/13 05:58:04;;;;;;;14.48;3.25;;;;;;;;;;5023436;28;20045;-78
2021/08/13 06:00:31;;;;;;;12.02;2.78;;;;;;;;;;5023638;28;20049;-75
2021/08/13 06:03:00;;;;;;;10.35;2.72;;;;;;;;;;5023431;28;20045;-76
2021/08/13 06:05:28;;;;;;;11.82;2.95;;;;;;;;;;5021544;28;20037;-75
2021/08/13 06:07:55;;;;;;;11.07;2.92;;;;;;;;;;5021937;28;20037;-75
2021/08/13 06:10:22;;;;;;;14.32;3.33;;;;;;;;;;5037035;28;20132;-75
2021/08/13 06:12:50;;;;;;;12.43;2.90;;;;;;;;;;5023133;28;20072;-76
2021/08/13 06:15:18;;;;;;;13.10;3.85;;;;;;;;;;5021955;28;20117;-75
2021/08/13 06:17:46;;;;;;;12.35;3.28;;;;;;;;;;5023060;28;20116;-76
2021/08/13 06:20:20;;;;;;;11.07;3.42;;;;;;;;;;5023252;28;20034;-76
2021/08/13 06:22:48;;;;;;;12.60;3.20;;;;;;;;;;5022911;28;20046;-76
2021/08/13 06:25:16;;;;;;;10.93;3.95;;;;;;;;;;5023091;28;20506;-76
2021/08/13 06:27:44;;;;;;;16.55;3.70;;;;;;;;;;5023343;28;20040;-76
2021/08/13 06:30:13;;;;;;;11.02;2.80;;;;;;;;;;5022521;28;20050;-75
2021/08/13 06:32:40;;;;;;;12.02;3.42;;;;;;;;;;5004585;28;20443;-75
2021/08/13 06:35:08;;;;;;;10.90;3.70;;;;;;;;;;5023281;28;20045;-75
2021/08/13 06:37:44;;;;;;;11.45;3.10;;;;;;;;;;5022900;28;20048;-77
2021/08/13 06:40:11;;;;;;;8.43;3.42;;;;;;;;;;5022900;28;21102;-76
2021/08/13 06:42:38;;;;;;;8.43;3.33;;;;;;;;;;5022926;28;20500;-76
2021/08/13 06:45:07;;;;;;;10.68;3.72;;;;;;;;;;5038112;28;20503;-76
2021/08/13 06:47:34;;;;;;;11.63;3.55;;;;;;;;;;5022994;28;20041;-76
2021/08/13 06:50:02;;;;;;;12.15;3.30;;;;;;;;;;5021127;28;20050;-77
2021/08/13 06:52:29;;;;;;;17.60;3.80;;;;;;;;;;5020847;28;20046;-78
2021/08/13 06:54:56;;;;;;;8.63;3.30;;;;;;;;;;5021937;28;20045;-76
2021/08/13 06:57:23;;;;;;;19.80;3.83;;;;;;;;;;5021603;28;20408;-77
2021/08/13 06:59:50;;;;;;;11.27;3.30;;;;;;;;;;5022816;28;20052;-76
2021/08/13 07:02:18;;;;;;;8.52;3.03;;;;;;;;;;5025075;28;20033;-77
2021/08/13 07:04:45;;;;;;;15.35;3.75;;;;;;;;;;5022815;28;20041;-76
2021/08/13 07:07:20;;;;;;;19.42;4.78;;;;;;;;;;5024691;28;20416;-77
2021/08/13 07:09:47;;;;;;;14.30;3.65;;;;;;;;;;5026443;28;20103;-76
2021/08/13 07:12:16;;;;;;;12.80;4.20;;;;;;;;;;5026189;28;20076;-76
2021/08/13 07:14:43;;;;;;;10.48;3.47;;;;;;;;;;5037896;28;20046;-76
2021/08/13 07:17:10;;;;;;;9.15;3.65;;;;;;;;;;4988345;28;20072;-76
2021/08/13 07:19:38;;;;;;;13.40;3.25;;;;;;;;;;5024431;28;20511;-77
2021/08/13 07:22:05;;;;;;;7.38;3.13;;;;;;;;;;5024680;28;20124;-76
2021/08/13 07:24:33;;;;;;;10.57;2.97;;;;;;;;;;5026138;28;20057;-77
2021/08/13 07:27:00;;;;;;;13.98;3.60;;;;;;;;;;5024946;28;20049;-76
2021/08/13 07:29:27;;;;;;;9.45;3.03;;;;;;;;;;5024418;28;20041;-78
2021/08/13 07:31:55;;;;;;;12.00;3.95;;;;;;;;;;5026114;28;20053;-77
2021/08/13 07:34:23;;;;;;;8.43;3.60;;;;;;;;;;5024391;28;20168;-76
2021/08/13 07:36:50;;;;;;;9.27;3.17;;;;;;;;;;5024046;28;20037;-77
2021/08/13 07:39:17;;;;;;;13.90;4.28;;;;;;;;;;5024320;28;20046;-77
2021/08/13 07:41:45;;;;;;;12.57;3.78;;;;;;;;;;5024395;28;20037;-78
2021/08/13 07:44:12;;;;;;;10.90;3.55;;;;;;;;;;5025587;28;20049;-78
2021/08/13 07:46:39;;;;;;;10.10;3.20;;;;;;;;;;5026284;28;20068;-77
2021/08/13 07:49:06;;;;;;;10.40;4.22;;;;;;;;;;5023774;28;20502;-78
2021/08/13 07:51:33;;;;;;;9.45;3.30;;;;;;;;;;5025989;28;20041;-76
2021/08/13 07:54:00;;;;;;;16.58;3.13;;;;;;;;;;5015229;28;20038;-76
2021/08/13 07:56:27;;;;;;;15.98;3.97;;;;;;;;;;5023571;28;20446;-77
2021/08/13 07:58:54;;;;;;;9.90;4.03;;;;;;;;;;5024020;28;20053;-76
2021/08/13 08:01:21;;;;;;;11.45;3.70;;;;;;;;;;5023755;28;20515;-76
2021/08/13 08:03:48;;;;;;;9.75;3.47;;;;;;;;;;5023634;28;20060;-77
2021/08/13 08:06:15;;;;;;;10.98;3.95;;;;;;;;;;5024160;28;20558;-76
2021/08/13 08:08:42;;;;;;;12.32;3.60;;;;;;;;;;5040219;28;20042;-76
2021/08/13 08:11:09;;;;;;;15.07;4.45;;;;;;;;;;5023933;28;20033;-77
2021/08/13 08:13:36;;;;;;;9.23;3.75;;;;;;;;;;5025512;28;20048;-76
2021/08/13 08:16:04;;;;;;;15.45;4.10;;;;;;;;;;5023030;28;20111;-77
2021/08/13 08:18:31;;;;;;;12.35;4.15;;;;;;;;;;5024235;28;20119;-77
2021/08/13 08:21:02;;;;;;;12.13;5.00;;;;;;;;;;5023288;28;20416;-76
2021/08/13 08:23:29;;;;;;;12.60;6.40;;;;;;;;;;5023322;28;20132;-77
2021/08/13 08:25:56;;;;;;;16.98;7.50;;;;;;;;;;5024006;28;20080;-76
2021/08/13 08:28:23;;;;;;;15.95;7.55;;;;;;;;;;5025264;28;20447;-76
2021/08/13 08:30:50;;;;;;;18.08;6.78;;;;;;;;;;5023149;28;20503;-76
2021/08/13 08:33:17;;;;;;;15.57;6.30;;;;;;;;;;5025198;28;20060;-77
2021/08/13 08:35:44;;;;;;;14.13;5.90;;;;;;;;;;5024767;28;20053;-78
2021/08/13 08:38:11;;;;;;;11.52;7.03;;;;;;;;;;5023479;28;20526;-76
2021/08/13 08:40:39;;;;;;;15.25;6.43;;;;;;;;;;5024548;28;20060;-77
2021/08/13 08:43:09;;;;;;;13.50;6.13;;;;;;;;;;5018401;28;20577;-78
2021/08/13 08:45:40;;;;;;;17.55;5.75;;;;;;;;;;5039598;28;20128;-77
2021/08/13 08:48:09;;;;;;;15.27;6.30;;;;;;;;;;5024403;28;20050;-78
2021/08/13 08:50:41;;;;;;;10.57;5.03;;;;;;;;;;5024721;28;20041;-77
2021/08/13 08:53:28;;;;;;;12.35;4.72;;;;;;;;;;5024431;28;20041;-77
2021/08/13 08:56:00;;;;;;;14.38;5.35;;;;;;;;;;5022694;28;20042;-76
2021/08/13 08:58:33;;;;;;;11.90;4.90;;;;;;;;;;5022986;28;20053;-76
2021/08/13 09:01:01;;;;;;;16.85;5.30;;;;;;;;;;5024689;28;20041;-76
2021/08/13 09:03:28;;;;;;;13.05;5.25;;;;;;;;;;5022529;28;20113;-78
2021/08/13 09:05:55;;;;;;;13.45;5.50;;;;;;;;;;5039614;28;20411;-77
2021/08/13 09:08:22;;;;;;;10.82;5.07;;;;;;;;;;5024082;28;20042;-77
2021/08/13 09:10:50;;;;;;;11.55;5.88;;;;;;;;;;5039094;28;20431;-78
2021/08/13 09:13:25;;;;;;;17.20;7.03;;;;;;;;;;5022659;28;20037;-77
2021/08/13 09:15:55;;;;;;;;;;;;;;;;;;5024593;28;20048;-77
2021/08/13 09:18:24;;;;;;;15.82;8.25;;;;;;;;;;5023162;28;20063;-76
2021/08/13 09:21:00;;;;;;;21.35;8.10;;;;;;;;;;5023546;28;20791;-77
2021/08/13 09:23:43;;;;;;;16.20;8.48;;;;;;;;;;5022127;28;20416;-77
2021/08/13 09:26:13;;;;;;;17.88;9.02;;;;;;;;;;5022336;28;20121;-77
2021/08/13 09:29:00;;;;;;;15.80;8.70;;;;;;;;;;5038571;28;20049;-76
2021/08/13 09:31:34;;;;;;;17.38;8.55;;;;;;;;;;5021248;28;20041;-76
2021/08/13 09:34:11;;;;;;;22.92;9.05;;;;;;;;;;4991579;28;20050;-75
2021/08/13 09:36:51;;;;;;;20.27;10.15;;;;;;;;;;5019706;28;20598;-79
2021/08/13 09:39:31;;;;;;;21.80;11.55;;;;;;;;;;5021455;28;20711;-76
2021/08/13 09:42:07;;;;;;;17.10;10.70;;;;;;;;;;5017540;28;20072;-76
2021/08/13 09:44:46;;;;;;;24.30;12.55;;;;;;;;;;5012853;28;20462;-77
2021/08/13 09:47:14;;;;;;;22.63;11.10;;;;;;;;;;4997634;28;20484;-76
2021/08/13 09:49:54;;;;;;;23.55;12.80;;;;;;;;;;5001513;28;20045;-76
2021/08/13 09:52:21;;;;;;;30.75;13.52;;;;;;;;;;5007013;28;20080;-77
2021/08/13 09:55:09;;;;;;;29.35;15.27;;;;;;;;;;5022989;28;20045;-77
2021/08/13 09:57:45;;;;;;;29.73;15.40;;;;;;;;;;5003808;28;20148;-78
2021/08/13 10:00:15;;;;;;;36.38;17.55;;;;;;;;;;5014355;28;20057;-77
2021/08/13 10:02:44;;;;;;;31.08;18.42;;;;;;;;;;5019601;28;20049;-76
2021/08/13 10:05:27;;;;;;;39.90;23.98;;;;;;;;;;5012574;28;20087;-78
2021/08/13 10:07:56;;;;;;;40.88;24.25;;;;;;;;;;5006130;28;20049;-76
2021/08/13 10:10:24;;;;;;;;;;;;;;;;;;5024400;28;20131;-77
2021/08/13 10:12:51;;;;;;;54.92;26.92;;;;;;;;;;5024251;28;19948;-76
2021/08/13 10:15:29;;;;;;;50.63;26.58;;;;;;;;;;5038831;28;20045;-77
2021/08/13 10:17:57;;;;;;;48.15;26.13;;;;;;;;;;5022141;28;20049;-78
2021/08/13 10:20:27;;;;;;;38.08;25.63;;;;;;;;;;5021991;28;20396;-77
2021/08/13 10:22:54;;;;;;;45.78;23.92;;;;;;;;;;5023807;28;20048;-77
2021/08/13 10:25:22;;;;;;;41.72;24.42;;;;;;;;;;5005670;28;20993;-76
2021/08/13 10:27:51;;;;;;;38.95;22.30;;;;;;;;;;5023621;28;20044;-76
2021/08/13 10:30:19;;;;;;;41.90;22.35;;;;;;;;;;5024727;28;20049;-79
2021/08/13 10:32:47;;;;;;;43.65;25.25;;;;;;;;;;5021227;28;20112;-78
2021/08/13 10:35:14;;;;;;;49.20;27.35;;;;;;;;;;5020984;28;20400;-78
2021/08/13 10:37:42;;;;;;;51.65;30.10;;;;;;;;;;5023602;28;20069;-78
2021/08/13 10:40:12;;;;;;;56.15;31.42;;;;;;;;;;5039322;28;20051;-78
2021/08/13 10:42:44;;;;;;;53.60;31.17;;;;;;;;;;5025281;28;20167;-78
2021/08/13 10:45:18;;;;;;;64.78;33.92;;;;;;;;;;5026769;28;20041;-77
2021/08/13 10:48:02;;;;;;;66.47;34.72;;;;;;;;;;5026495;28;20060;-78
2021/08/13 10:50:30;;;;;;;58.28;32.55;;;;;;;;;;5025028;28;20045;-79
2021/08/13 10:52:57;;;;;;;53.15;28.98;;;;;;;;;;5024701;28;20502;-78
2021/08/13 10:55:39;;;;;;;52.55;29.70;;;;;;;;;;5026922;28;20456;-79
2021/08/13 10:58:09;;;;;;;46.92;25.77;;;;;;;;;;5007398;28;20128;-79
2021/08/13 11:01:08;;;;;;;42.50;25.15;;;;;;;;;;5025046;28;20041;-79
2021/08/13 11:03:36;;;;;;;49.47;26.27;;;;;;;;;;5025065;28;20044;-79
2021/08/13 11:06:03;;;;;;;;;;;;;;;;;;5042296;28;20045;-78
2021/08/13 11:08:54;;;;;;;41.72;23.73;;;;;;;;;;5026619;28;19921;-79
2021/08/13 11:11:22;;;;;;;45.13;25.48;;;;;;;;;;5021680;28;20057;-79
2021/08/13 11:13:49;;;;;;;38.35;23.55;;;;;;;;;;5025902;28;20128;-78
2021/08/13 11:16:31;;;;;;;31.55;18.08;;;;;;;;;;5024118;28;20125;-78
2021/08/13 11:19:11;;;;;;;35.97;18.95;;;;;;;;;;5024747;28;20042;-78
2021/08/13 11:21:50;;;;;;;38.80;25.23;;;;;;;;;;5024325;28;20037;-82
2021/08/13 11:24:20;;;;;;;45.85;31.73;;;;;;;;;;5022909;28;20080;-82
2021/08/13 11:26:53;;;;;;;39.03;27.38;;;;;;;;;;5024946;28;20046;-80
2021/08/13 11:29:37;;;;;;;33.40;20.05;;;;;;;;;;5044437;28;20041;-80
2021/08/13 11:32:19;;;;;;;32.33;22.92;;;;;;;;;;5039298;28;20068;-79
2021/08/13 11:34:58;;;;;;;36.55;25.67;;;;;;;;;;5024654;28;20496;-77
2021/08/13 11:37:31;;;;;;;41.83;26.30;;;;;;;;;;5015625;28;20053;-79
2021/08/13 11:40:06;;;;;;;24.67;16.40;;;;;;;;;;5038853;28;20103;-74
2021/08/13 11:42:33;;;;;;;;;;;;;;;;;;5025087;28;20071;-74
2021/08/13 11:45:02;;;;;;;21.08;11.95;;;;;;;;;;5040710;28;19948;-75
2021/08/13 11:47:29;;;;;;;;;;;;;;;;;;5026651;28;20091;-74
2021/08/13 11:49:56;;;;;;;15.07;6.63;;;;;;;;;;5025485;28;19917;-75
2021/08/13 11:52:26;;;;;;;19.25;8.80;;;;;;;;;;5024581;28;20049;-75
2021/08/13 11:54:55;;;;;;;16.50;8.23;;;;;;;;;;5028361;28;20102;-76
2021/08/13 11:57:22;;;;;;;;;;;;;;;;;;5016141;28;20052;-75
2021/08/13 11:59:52;;;;;;;16.77;8.65;;;;;;;;;;5034936;28;19928;-75
2021/08/13 12:02:32;;;;;;;14.05;6.82;;;;;;;;;;5020932;28;20040;-74
2021/08/13 12:05:07;;;;;;;18.20;6.40;;;;;;;;;;5031809;28;20087;-75
2021/08/13 12:07:34;;;;;;;13.93;6.57;;;;;;;;;;5022468;28;20034;-76
2021/08/13 12:10:12;;;;;;;14.85;6.50;;;;;;;;;;5035305;28;20048;-74
2021/08/13 12:12:41;;;;;;;16.23;6.72;;;;;;;;;;5039160;28;20041;-73
2021/08/13 12:15:08;;;;;;;13.95;6.53;;;;;;;;;;5023948;28;20474;-74
2021/08/13 12:17:36;;;;;;;11.75;5.30;;;;;;;;;;5022482;28;20036;-75
2021/08/13 12:20:07;;;;;;;11.27;5.63;;;;;;;;;;5023809;28;20041;-74
2021/08/13 12:22:38;;;;;;;15.68;5.32;;;;;;;;;;5027469;28;20694;-75
2021/08/13 12:25:10;;;;;;;15.63;5.32;;;;;;;;;;5014980;28;21749;-75
2021/08/13 12:27:41;;;;;;;12.77;5.05;;;;;;;;;;5030560;28;20037;-75
2021/08/13 12:30:26;;;;;;;8.27;4.20;;;;;;;;;;5027952;28;20049;-74
2021/08/13 12:32:54;;;;;;;11.70;4.82;;;;;;;;;;5038359;28;20088;-74
2021/08/13 12:35:22;;;;;;;10.23;4.35;;;;;;;;;;5021957;28;20503;-74
2021/08/13 12:37:50;;;;;;;13.43;4.10;;;;;;;;;;5033775;28;20115;-74
2021/08/13 12:40:19;;;;;;;11.20;4.35;;;;;;;;;;5050367;28;20479;-74
2021/08/13 12:42:51;;;;;;;10.18;3.65;;;;;;;;;;5043580;28;20052;-75
2021/08/13 12:45:21;;;;;;;15.10;3.42;;;;;;;;;;5052985;28;20044;-74
2021/08/13 12:47:51;;;;;;;10.90;4.05;;;;;;;;;;5029669;28;20118;-78
2021/08/13 12:50:20;;;;;;;13.15;5.82;;;;;;;;;;5023056;28;20428;-74
2021/08/13 12:53:08;;;;;;;8.35;3.22;;;;;;;;;;5023217;28;20124;-77
2021/08/13 12:55:44;;;;;;;6.07;2.30;;;;;;;;;;5002943;28;20072;-73
2021/08/13 12:58:36;;;;;;;6.18;1.67;;;;;;;;;;4989308;28;20500;-74
2021/08/13 13:01:24;;;;;;;5.03;1.23;;;;;;;;;;5015173;28;20045;-74
2021/08/13 13:04:16;;;;;;;9.07;1.75;;;;;;;;;;5018686;28;20065;-75
2021/08/13 13:06:50;;;;;;;5.60;1.42;;;;;;;;;;5030514;28;20045;-76
2021/08/13 13:09:34;;;;;;;2.60;1.13;;;;;;;;;;4942133;28;20045;-76
2021/08/13 13:12:22;;;;;;;5.45;1.52;;;;;;;;;;4996352;28;20504;-76
2021/08/13 13:14:52;;;;;;;2.95;1.00;;;;;;;;;;5013689;28;20057;-76
2021/08/13 13:17:19;;;;;;;2.03;0.68;;;;;;;;;;5006029;28;20042;-75
2021/08/13 13:20:04;;;;;;;3.85;1.30;;;;;;;;;;5001765;28;20040;-76
2021/08/13 13:22:33;;;;;;;4.47;1.20;;;;;;;;;;5024530;28;20046;-79
2021/08/13 13:25:12;;;;;;;4.97;1.00;;;;;;;;;;5007327;28;20092;-76
2021/08/13 13:28:04;;;;;;;3.75;0.93;;;;;;;;;;5021119;28;20041;-76
2021/08/13 13:30:36;;;;;;;9.15;1.30;;;;;;;;;;5018886;28;20045;-78
2021/08/13 13:33:10;;;;;;;4.80;0.85;;;;;;;;;;5019775;28;20153;-77
2021/08/13 13:35:40;;;;;;;4.53;1.00;;;;;;;;;;5019419;28;20052;-76
2021/08/13 13:38:09;;;;;;;2.88;1.05;;;;;;;;;;5017053;28;20152;-76
2021/08/13 13:40:43;;;;;;;2.30;0.70;;;;;;;;;;5020710;28;20484;-77
2021/08/13 13:43:10;;;;;;;4.45;0.90;;;;;;;;;;4947355;28;20534;-75
2021/08/13 13:45:38;;;;;;;1.95;0.93;;;;;;;;;;5022775;28;20048;-76
2021/08/13 13:48:06;;;;;;;2.88;1.00;;;;;;;;;;5026979;28;20033;-77
2021/08/13 13:50:34;;;;;;;10.38;1.70;;;;;;;;;;5032373;28;20412;-76
2021/08/13 13:53:02;;;;;;;3.63;1.35;;;;;;;;;;5011067;28;20057;-75
2021/08/13 13:55:30;;;;;;;4.60;1.20;;;;;;;;;;5020622;28;20049;-76
2021/08/13 13:57:57;;;;;;;2.20;0.45;;;;;;;;;;5022805;28;20053;-75
2021/08/13 14:00:24;;;;;;;4.10;0.80;;;;;;;;;;5019214;28;20106;-76
2021/08/13 14:02:52;;;;;;;3.33;1.10;;;;;;;;;;5029425;28;20041;-76
2021/08/13 14:05:19;;;;;;;4.15;1.17;;;;;;;;;;5013041;28;20045;-76
2021/08/13 14:07:48;;;;;;;2.78;0.85;;;;;;;;;;5028851;28;20118;-76
2021/08/13 14:10:19;;;;;;;1.92;0.70;;;;;;;;;;5019314;28;20037;-75
2021/08/13 14:12:48;;;;;;;2.78;0.57;;;;;;;;;;5030191;28;20052;-76
2021/08/13 14:15:17;;;;;;;4.20;0.85;;;;;;;;;;5020903;28;20047;-76
2021/08/13 14:17:48;;;;;;;2.72;0.68;;;;;;;;;;5019211;28;20408;-75
2021/08/13 14:20:17;;;;;;;10.10;1.10;;;;;;;;;;5017448;28;20041;-76
2021/08/13 14:22:46;;;;;;;3.80;0.93;;;;;;;;;;5031991;28;20630;-76
2021/08/13 14:25:18;;;;;;;2.40;0.93;;;;;;;;;;5018262;28;20045;-78
2021/08/13 14:27:47;;;;;;;6.65;1.00;;;;;;;;;;5034131;28;20056;-75
2021/08/13 14:30:16;;;;;;;5.40;1.40;;;;;;;;;;5035814;28;20041;-76
2021/08/13 14:32:43;;;;;;;5.18;1.02;;;;;;;;;;5017008;28;20034;-76
2021/08/13 14:35:11;;;;;;;4.45;0.90;;;;;;;;;;5016776;28;20041;-76
2021/08/13 14:37:38;;;;;;;3.13;0.90;;;;;;;;;;5011855;28;20514;-76
2021/08/13 14:40:10;;;;;;;4.45;0.80;;;;;;;;;;5029281;28;20124;-79
2021/08/13 14:42:39;;;;;;;3.30;0.90;;;;;;;;;;4977101;28;20037;-75
2021/08/13 14:45:07;;;;;;;1.95;0.82;;;;;;;;;;5015366;28;20409;-78
2021/08/13 14:47:34;;;;;;;2.00;0.73;;;;;;;;;;5021238;28;20041;-76
2021/08/13 14:50:01;;;;;;;4.25;0.80;;;;;;;;;;5020001;28;20403;-75
2021/08/13 14:52:28;;;;;;;3.92;0.85;;;;;;;;;;5021322;28;20128;-76